sensor_id;sensor_type;location;lat;lon;timestamp;P1;durP1;ratioP1;P2;durP2;ratioP2
60314;SDS011;46159;42.550;21.904;2023-04-15T00:01:23;33.22;;;14.75;;
60314;SDS011;46159;42.550;21.904;2023-04-15T00:03:50;38.85;;;16.42;;
60314;SDS011;46159;42.550;21.904;2023-04-15T00:06:17;27.27;;;15.45;;
60314;SDS011;46159;42.550;21.904;2023-04-15T00:08:46;23.70;;;12.05;;
60314;SDS011;46159;42.550;21.904;2023-04-15T00:11:13;21.38;;;12.15;;
60314;SDS011;46159;42.550;21.904;2023-04-15T00:13:39;21.80;;;11.57;;
60314;SDS011;46159;42.550;21.904;2023-04-15T00:16:06;22.00;;;11.77;;
60314;SDS011;46159;42.550;21.904;2023-04-15T00:18:32;20.02;;;12.10;;
60314;SDS011;46159;42.550;21.904;2023-04-15T00:20:58;23.65;;;12.57;;
60314;SDS011;46159;42.550;21.904;2023-04-15T00:23:25;22.02;;;9.23;;
60314;SDS011;46159;42.550;21.904;2023-04-15T00:25:51;17.67;;;7.80;;
60314;SDS011;46159;42.550;21.904;2023-04-15T00:28:17;18.40;;;7.53;;
60314;SDS011;46159;42.550;21.904;2023-04-15T00:30:43;15.38;;;6.78;;
60314;SDS011;46159;42.550;21.904;2023-04-15T00:33:10;18.23;;;6.20;;
60314;SDS011;46159;42.550;21.904;2023-04-15T00:35:36;16.88;;;6.45;;
60314;SDS011;46159;42.550;21.904;2023-04-15T00:38:03;12.05;;;5.75;;
60314;SDS011;46159;42.550;21.904;2023-04-15T00:40:29;13.75;;;5.95;;
60314;SDS011;46159;42.550;21.904;2023-04-15T00:42:55;14.43;;;4.45;;
60314;SDS011;46159;42.550;21.904;2023-04-15T00:45:21;14.27;;;6.45;;
60314;SDS011;46159;42.550;21.904;2023-04-15T00:47:48;14.13;;;5.97;;
60314;SDS011;46159;42.550;21.904;2023-04-15T00:50:17;17.85;;;7.97;;
60314;SDS011;46159;42.550;21.904;2023-04-15T00:52:43;18.05;;;9.27;;
60314;SDS011;46159;42.550;21.904;2023-04-15T00:55:09;21.27;;;10.25;;
60314;SDS011;46159;42.550;21.904;2023-04-15T00:57:35;32.85;;;19.30;;
60314;SDS011;46159;42.550;21.904;2023-04-15T01:00:02;23.88;;;12.05;;
60314;SDS011;46159;42.550;21.904;2023-04-15T01:02:29;23.73;;;10.60;;
60314;SDS011;46159;42.550;21.904;2023-04-15T01:04:56;21.10;;;9.77;;
60314;SDS011;46159;42.550;21.904;2023-04-15T01:07:23;17.85;;;9.32;;
60314;SDS011;46159;42.550;21.904;2023-04-15T01:09:50;19.13;;;10.30;;
60314;SDS011;46159;42.550;21.904;2023-04-15T01:12:17;20.63;;;11.35;;
60314;SDS011;46159;42.550;21.904;2023-04-15T01:14:45;22.88;;;9.60;;
60314;SDS011;46159;42.550;21.904;2023-04-15T01:17:11;21.98;;;10.65;;
60314;SDS011;46159;42.550;21.904;2023-04-15T01:19:37;32.03;;;16.15;;
60314;SDS011;46159;42.550;21.904;2023-04-15T01:22:09;34.63;;;18.95;;
60314;SDS011;46159;42.550;21.904;2023-04-15T01:24:35;38.03;;;21.17;;
60314;SDS011;46159;42.550;21.904;2023-04-15T01:27:01;29.65;;;16.33;;
60314;SDS011;46159;42.550;21.904;2023-04-15T01:29:29;18.95;;;9.52;;
60314;SDS011;46159;42.550;21.904;2023-04-15T01:31:55;21.05;;;9.82;;
60314;SDS011;46159;42.550;21.904;2023-04-15T01:34:21;21.00;;;9.57;;
60314;SDS011;46159;42.550;21.904;2023-04-15T01:36:47;18.00;;;8.55;;
60314;SDS011;46159;42.550;21.904;2023-04-15T01:39:13;18.40;;;7.97;;
60314;SDS011;46159;42.550;21.904;2023-04-15T01:41:39;12.38;;;6.47;;
60314;SDS011;46159;42.550;21.904;2023-04-15T01:44:06;15.75;;;6.13;;
60314;SDS011;46159;42.550;21.904;2023-04-15T01:46:32;9.93;;;3.17;;
60314;SDS011;46159;42.550;21.904;2023-04-15T01:48:58;10.18;;;3.80;;
60314;SDS011;46159;42.550;21.904;2023-04-15T01:51:24;11.02;;;3.20;;
60314;SDS011;46159;42.550;21.904;2023-04-15T01:53:51;9.18;;;3.45;;
60314;SDS011;46159;42.550;21.904;2023-04-15T01:56:17;8.73;;;3.30;;
60314;SDS011;46159;42.550;21.904;2023-04-15T01:58:45;8.10;;;3.38;;
60314;SDS011;46159;42.550;21.904;2023-04-15T02:01:11;11.15;;;4.68;;
60314;SDS011;46159;42.550;21.904;2023-04-15T02:03:38;13.45;;;5.70;;
60314;SDS011;46159;42.550;21.904;2023-04-15T02:06:05;13.43;;;5.53;;
60314;SDS011;46159;42.550;21.904;2023-04-15T02:08:31;12.90;;;5.13;;
60314;SDS011;46159;42.550;21.904;2023-04-15T02:10:59;10.35;;;3.78;;
60314;SDS011;46159;42.550;21.904;2023-04-15T02:13:25;9.02;;;3.60;;
60314;SDS011;46159;42.550;21.904;2023-04-15T02:15:54;8.32;;;3.25;;
60314;SDS011;46159;42.550;21.904;2023-04-15T02:18:20;13.85;;;4.18;;
60314;SDS011;46159;42.550;21.904;2023-04-15T02:20:46;11.65;;;4.38;;
60314;SDS011;46159;42.550;21.904;2023-04-15T02:23:12;10.15;;;4.20;;
60314;SDS011;46159;42.550;21.904;2023-04-15T02:25:39;8.55;;;3.85;;
60314;SDS011;46159;42.550;21.904;2023-04-15T02:28:05;15.93;;;6.47;;
60314;SDS011;46159;42.550;21.904;2023-04-15T02:30:31;15.90;;;7.78;;
60314;SDS011;46159;42.550;21.904;2023-04-15T02:32:58;17.60;;;7.90;;
60314;SDS011;46159;42.550;21.904;2023-04-15T02:35:24;16.30;;;7.93;;
60314;SDS011;46159;42.550;21.904;2023-04-15T02:37:50;18.38;;;8.70;;
60314;SDS011;46159;42.550;21.904;2023-04-15T02:40:17;20.25;;;10.45;;
60314;SDS011;46159;42.550;21.904;2023-04-15T02:42:43;18.27;;;9.35;;
60314;SDS011;46159;42.550;21.904;2023-04-15T02:45:09;17.85;;;8.73;;
60314;SDS011;46159;42.550;21.904;2023-04-15T02:47:39;16.77;;;8.93;;
60314;SDS011;46159;42.550;21.904;2023-04-15T02:50:09;18.00;;;8.18;;
60314;SDS011;46159;42.550;21.904;2023-04-15T02:52:38;13.93;;;6.95;;
60314;SDS011;46159;42.550;21.904;2023-04-15T02:55:05;16.83;;;8.75;;
60314;SDS011;46159;42.550;21.904;2023-04-15T02:57:32;11.38;;;4.93;;
60314;SDS011;46159;42.550;21.904;2023-04-15T03:00:00;12.30;;;5.05;;
60314;SDS011;46159;42.550;21.904;2023-04-15T03:02:27;13.13;;;6.20;;
60314;SDS011;46159;42.550;21.904;2023-04-15T03:04:58;14.60;;;7.78;;
60314;SDS011;46159;42.550;21.904;2023-04-15T03:07:24;15.27;;;6.43;;
60314;SDS011;46159;42.550;21.904;2023-04-15T03:09:50;13.68;;;7.22;;
60314;SDS011;46159;42.550;21.904;2023-04-15T03:12:16;13.00;;;6.70;;
60314;SDS011;46159;42.550;21.904;2023-04-15T03:14:42;15.95;;;6.10;;
60314;SDS011;46159;42.550;21.904;2023-04-15T03:17:08;12.05;;;6.68;;
60314;SDS011;46159;42.550;21.904;2023-04-15T03:19:34;25.00;;;14.32;;
60314;SDS011;46159;42.550;21.904;2023-04-15T03:22:01;18.45;;;10.50;;
60314;SDS011;46159;42.550;21.904;2023-04-15T03:24:28;17.55;;;9.93;;
60314;SDS011;46159;42.550;21.904;2023-04-15T03:26:57;19.85;;;12.50;;
60314;SDS011;46159;42.550;21.904;2023-04-15T03:29:23;31.50;;;13.50;;
60314;SDS011;46159;42.550;21.904;2023-04-15T03:31:50;30.15;;;16.13;;
60314;SDS011;46159;42.550;21.904;2023-04-15T03:34:16;29.98;;;15.52;;
60314;SDS011;46159;42.550;21.904;2023-04-15T03:36:42;21.58;;;12.45;;
60314;SDS011;46159;42.550;21.904;2023-04-15T03:39:08;21.73;;;12.32;;
60314;SDS011;46159;42.550;21.904;2023-04-15T03:41:34;24.92;;;13.20;;
60314;SDS011;46159;42.550;21.904;2023-04-15T03:44:01;34.72;;;19.02;;
60314;SDS011;46159;42.550;21.904;2023-04-15T03:46:27;30.90;;;16.30;;
60314;SDS011;46159;42.550;21.904;2023-04-15T03:48:53;29.08;;;16.48;;
60314;SDS011;46159;42.550;21.904;2023-04-15T03:51:19;32.05;;;17.45;;
60314;SDS011;46159;42.550;21.904;2023-04-15T03:53:45;26.67;;;12.63;;
60314;SDS011;46159;42.550;21.904;2023-04-15T03:56:11;23.30;;;10.88;;
60314;SDS011;46159;42.550;21.904;2023-04-15T03:58:37;26.40;;;14.43;;
60314;SDS011;46159;42.550;21.904;2023-04-15T04:01:03;23.33;;;12.15;;
60314;SDS011;46159;42.550;21.904;2023-04-15T04:03:30;26.60;;;13.57;;
60314;SDS011;46159;42.550;21.904;2023-04-15T04:05:56;31.35;;;19.90;;
60314;SDS011;46159;42.550;21.904;2023-04-15T04:08:22;32.75;;;18.52;;
60314;SDS011;46159;42.550;21.904;2023-04-15T04:10:48;38.45;;;20.33;;
60314;SDS011;46159;42.550;21.904;2023-04-15T04:13:14;28.33;;;15.25;;
60314;SDS011;46159;42.550;21.904;2023-04-15T04:15:40;32.33;;;16.33;;
60314;SDS011;46159;42.550;21.904;2023-04-15T04:18:06;32.17;;;14.90;;
60314;SDS011;46159;42.550;21.904;2023-04-15T04:20:32;30.08;;;16.02;;
60314;SDS011;46159;42.550;21.904;2023-04-15T04:22:59;29.25;;;15.07;;
60314;SDS011;46159;42.550;21.904;2023-04-15T04:25:25;20.95;;;11.55;;
60314;SDS011;46159;42.550;21.904;2023-04-15T04:27:51;16.08;;;8.10;;
60314;SDS011;46159;42.550;21.904;2023-04-15T04:30:17;24.92;;;12.15;;
60314;SDS011;46159;42.550;21.904;2023-04-15T04:32:43;29.38;;;15.95;;
60314;SDS011;46159;42.550;21.904;2023-04-15T04:35:10;24.83;;;14.55;;
60314;SDS011;46159;42.550;21.904;2023-04-15T04:37:37;28.73;;;18.17;;
60314;SDS011;46159;42.550;21.904;2023-04-15T04:40:03;33.90;;;22.90;;
60314;SDS011;46159;42.550;21.904;2023-04-15T04:42:29;37.80;;;24.23;;
60314;SDS011;46159;42.550;21.904;2023-04-15T04:44:55;30.67;;;19.35;;
60314;SDS011;46159;42.550;21.904;2023-04-15T04:47:21;29.27;;;19.80;;
60314;SDS011;46159;42.550;21.904;2023-04-15T04:49:47;25.13;;;16.77;;
60314;SDS011;46159;42.550;21.904;2023-04-15T04:52:13;26.92;;;17.70;;
60314;SDS011;46159;42.550;21.904;2023-04-15T04:54:40;15.25;;;8.85;;
60314;SDS011;46159;42.550;21.904;2023-04-15T04:57:06;13.63;;;8.13;;
60314;SDS011;46159;42.550;21.904;2023-04-15T04:59:32;14.20;;;7.47;;
60314;SDS011;46159;42.550;21.904;2023-04-15T05:01:58;17.27;;;8.98;;
60314;SDS011;46159;42.550;21.904;2023-04-15T05:04:24;15.95;;;8.57;;
60314;SDS011;46159;42.550;21.904;2023-04-15T05:06:50;13.50;;;8.48;;
60314;SDS011;46159;42.550;21.904;2023-04-15T05:09:16;14.32;;;8.95;;
60314;SDS011;46159;42.550;21.904;2023-04-15T05:11:43;17.73;;;10.65;;
60314;SDS011;46159;42.550;21.904;2023-04-15T05:14:09;14.73;;;10.30;;
60314;SDS011;46159;42.550;21.904;2023-04-15T05:16:35;19.80;;;11.80;;
60314;SDS011;46159;42.550;21.904;2023-04-15T05:19:01;19.48;;;12.15;;
60314;SDS011;46159;42.550;21.904;2023-04-15T05:21:27;17.88;;;11.50;;
60314;SDS011;46159;42.550;21.904;2023-04-15T05:23:53;16.83;;;10.05;;
60314;SDS011;46159;42.550;21.904;2023-04-15T05:26:19;15.15;;;8.77;;
60314;SDS011;46159;42.550;21.904;2023-04-15T05:28:46;13.73;;;8.57;;
60314;SDS011;46159;42.550;21.904;2023-04-15T05:31:12;18.17;;;9.48;;
60314;SDS011;46159;42.550;21.904;2023-04-15T05:33:38;17.17;;;10.57;;
60314;SDS011;46159;42.550;21.904;2023-04-15T05:36:04;21.48;;;11.10;;
60314;SDS011;46159;42.550;21.904;2023-04-15T05:38:31;19.48;;;12.20;;
60314;SDS011;46159;42.550;21.904;2023-04-15T05:40:57;25.33;;;12.75;;
60314;SDS011;46159;42.550;21.904;2023-04-15T05:43:23;19.95;;;13.45;;
60314;SDS011;46159;42.550;21.904;2023-04-15T05:45:49;22.05;;;14.10;;
60314;SDS011;46159;42.550;21.904;2023-04-15T05:48:15;17.52;;;11.40;;
60314;SDS011;46159;42.550;21.904;2023-04-15T05:50:41;18.38;;;12.52;;
60314;SDS011;46159;42.550;21.904;2023-04-15T05:53:08;21.63;;;13.10;;
60314;SDS011;46159;42.550;21.904;2023-04-15T05:55:35;30.77;;;20.88;;
60314;SDS011;46159;42.550;21.904;2023-04-15T05:58:01;23.13;;;16.50;;
60314;SDS011;46159;42.550;21.904;2023-04-15T06:00:30;24.25;;;16.48;;
60314;SDS011;46159;42.550;21.904;2023-04-15T06:02:56;31.40;;;20.63;;
60314;SDS011;46159;42.550;21.904;2023-04-15T06:05:23;38.28;;;26.10;;
60314;SDS011;46159;42.550;21.904;2023-04-15T06:07:49;31.45;;;23.02;;
60314;SDS011;46159;42.550;21.904;2023-04-15T06:10:15;40.60;;;26.88;;
60314;SDS011;46159;42.550;21.904;2023-04-15T06:12:41;28.75;;;19.63;;
60314;SDS011;46159;42.550;21.904;2023-04-15T06:15:08;28.48;;;19.10;;
60314;SDS011;46159;42.550;21.904;2023-04-15T06:17:35;26.95;;;19.70;;
60314;SDS011;46159;42.550;21.904;2023-04-15T06:20:01;33.85;;;23.38;;
60314;SDS011;46159;42.550;21.904;2023-04-15T06:22:27;21.55;;;14.82;;
60314;SDS011;46159;42.550;21.904;2023-04-15T06:24:53;23.13;;;17.05;;
60314;SDS011;46159;42.550;21.904;2023-04-15T06:27:20;27.45;;;19.90;;
60314;SDS011;46159;42.550;21.904;2023-04-15T06:29:47;24.52;;;15.85;;
60314;SDS011;46159;42.550;21.904;2023-04-15T06:32:13;26.65;;;17.65;;
60314;SDS011;46159;42.550;21.904;2023-04-15T06:34:39;23.63;;;16.40;;
60314;SDS011;46159;42.550;21.904;2023-04-15T06:37:05;23.58;;;15.70;;
60314;SDS011;46159;42.550;21.904;2023-04-15T06:39:31;23.98;;;15.15;;
60314;SDS011;46159;42.550;21.904;2023-04-15T06:41:57;21.65;;;14.82;;
60314;SDS011;46159;42.550;21.904;2023-04-15T06:44:23;19.25;;;13.25;;
60314;SDS011;46159;42.550;21.904;2023-04-15T06:46:49;21.10;;;12.68;;
60314;SDS011;46159;42.550;21.904;2023-04-15T06:49:15;23.48;;;14.40;;
60314;SDS011;46159;42.550;21.904;2023-04-15T06:51:42;12.77;;;6.15;;
60314;SDS011;46159;42.550;21.904;2023-04-15T06:54:08;11.88;;;6.93;;
60314;SDS011;46159;42.550;21.904;2023-04-15T06:56:34;15.85;;;8.35;;
60314;SDS011;46159;42.550;21.904;2023-04-15T06:59:00;18.60;;;9.98;;
60314;SDS011;46159;42.550;21.904;2023-04-15T07:01:27;18.25;;;8.43;;
60314;SDS011;46159;42.550;21.904;2023-04-15T07:03:53;24.90;;;11.73;;
60314;SDS011;46159;42.550;21.904;2023-04-15T07:06:19;16.15;;;9.85;;
60314;SDS011;46159;42.550;21.904;2023-04-15T07:08:46;13.65;;;8.30;;
60314;SDS011;46159;42.550;21.904;2023-04-15T07:11:12;20.30;;;10.02;;
60314;SDS011;46159;42.550;21.904;2023-04-15T07:13:39;16.95;;;9.38;;
60314;SDS011;46159;42.550;21.904;2023-04-15T07:16:06;8.48;;;4.13;;
60314;SDS011;46159;42.550;21.904;2023-04-15T07:18:33;9.95;;;4.53;;
60314;SDS011;46159;42.550;21.904;2023-04-15T07:20:59;9.15;;;4.55;;
60314;SDS011;46159;42.550;21.904;2023-04-15T07:23:25;7.57;;;3.35;;
60314;SDS011;46159;42.550;21.904;2023-04-15T07:25:51;10.82;;;6.55;;
60314;SDS011;46159;42.550;21.904;2023-04-15T07:28:17;11.50;;;6.00;;
60314;SDS011;46159;42.550;21.904;2023-04-15T07:30:43;8.18;;;3.80;;
60314;SDS011;46159;42.550;21.904;2023-04-15T07:33:10;14.48;;;4.45;;
60314;SDS011;46159;42.550;21.904;2023-04-15T07:35:36;10.63;;;4.20;;
60314;SDS011;46159;42.550;21.904;2023-04-15T07:38:02;11.70;;;5.85;;
60314;SDS011;46159;42.550;21.904;2023-04-15T07:40:28;13.23;;;8.52;;
60314;SDS011;46159;42.550;21.904;2023-04-15T07:42:56;10.07;;;4.18;;
60314;SDS011;46159;42.550;21.904;2023-04-15T07:45:22;40.35;;;31.38;;
60314;SDS011;46159;42.550;21.904;2023-04-15T07:47:48;21.70;;;14.05;;
60314;SDS011;46159;42.550;21.904;2023-04-15T07:50:15;13.85;;;8.23;;
60314;SDS011;46159;42.550;21.904;2023-04-15T07:52:42;14.23;;;6.93;;
60314;SDS011;46159;42.550;21.904;2023-04-15T07:55:09;11.90;;;6.88;;
60314;SDS011;46159;42.550;21.904;2023-04-15T07:57:35;9.80;;;4.00;;
60314;SDS011;46159;42.550;21.904;2023-04-15T08:00:02;8.80;;;4.03;;
60314;SDS011;46159;42.550;21.904;2023-04-15T08:02:31;10.05;;;4.43;;
60314;SDS011;46159;42.550;21.904;2023-04-15T08:04:57;9.00;;;2.67;;
60314;SDS011;46159;42.550;21.904;2023-04-15T08:07:24;11.75;;;7.22;;
60314;SDS011;46159;42.550;21.904;2023-04-15T08:09:50;10.27;;;3.28;;
60314;SDS011;46159;42.550;21.904;2023-04-15T08:12:16;13.63;;;3.97;;
60314;SDS011;46159;42.550;21.904;2023-04-15T08:14:42;11.65;;;6.18;;
60314;SDS011;46159;42.550;21.904;2023-04-15T08:17:08;15.77;;;4.00;;
60314;SDS011;46159;42.550;21.904;2023-04-15T08:19:34;8.52;;;4.20;;
60314;SDS011;46159;42.550;21.904;2023-04-15T08:22:00;9.15;;;3.00;;
60314;SDS011;46159;42.550;21.904;2023-04-15T08:24:27;7.50;;;3.22;;
60314;SDS011;46159;42.550;21.904;2023-04-15T08:26:53;12.40;;;4.00;;
60314;SDS011;46159;42.550;21.904;2023-04-15T08:29:19;8.80;;;2.70;;
60314;SDS011;46159;42.550;21.904;2023-04-15T08:31:45;12.30;;;6.40;;
60314;SDS011;46159;42.550;21.904;2023-04-15T08:34:11;13.90;;;6.20;;
60314;SDS011;46159;42.550;21.904;2023-04-15T08:36:37;11.38;;;3.88;;
60314;SDS011;46159;42.550;21.904;2023-04-15T08:39:03;10.88;;;5.32;;
60314;SDS011;46159;42.550;21.904;2023-04-15T08:41:39;14.27;;;3.53;;
60314;SDS011;46159;42.550;21.904;2023-04-15T08:44:12;11.38;;;4.15;;
60314;SDS011;46159;42.550;21.904;2023-04-15T08:46:38;16.73;;;8.15;;
60314;SDS011;46159;42.550;21.904;2023-04-15T08:49:07;13.80;;;9.23;;
60314;SDS011;46159;42.550;21.904;2023-04-15T08:51:34;8.32;;;3.10;;
60314;SDS011;46159;42.550;21.904;2023-04-15T08:54:01;11.65;;;5.28;;
60314;SDS011;46159;42.550;21.904;2023-04-15T08:56:29;18.50;;;5.85;;
60314;SDS011;46159;42.550;21.904;2023-04-15T08:58:59;8.80;;;3.97;;
60314;SDS011;46159;42.550;21.904;2023-04-15T09:01:25;8.50;;;3.20;;
60314;SDS011;46159;42.550;21.904;2023-04-15T09:03:52;10.32;;;3.90;;
60314;SDS011;46159;42.550;21.904;2023-04-15T09:06:19;10.35;;;3.97;;
60314;SDS011;46159;42.550;21.904;2023-04-15T09:08:45;10.68;;;3.03;;
60314;SDS011;46159;42.550;21.904;2023-04-15T09:11:12;8.77;;;2.60;;
60314;SDS011;46159;42.550;21.904;2023-04-15T09:13:38;10.23;;;4.07;;
60314;SDS011;46159;42.550;21.904;2023-04-15T09:16:04;13.85;;;5.43;;
60314;SDS011;46159;42.550;21.904;2023-04-15T09:18:32;9.05;;;3.50;;
60314;SDS011;46159;42.550;21.904;2023-04-15T09:21:03;10.75;;;2.95;;
60314;SDS011;46159;42.550;21.904;2023-04-15T09:23:30;9.50;;;2.65;;
60314;SDS011;46159;42.550;21.904;2023-04-15T09:25:56;8.80;;;2.20;;
60314;SDS011;46159;42.550;21.904;2023-04-15T09:28:23;10.60;;;2.50;;
60314;SDS011;46159;42.550;21.904;2023-04-15T09:30:51;6.68;;;2.80;;
60314;SDS011;46159;42.550;21.904;2023-04-15T09:33:17;9.88;;;3.33;;
60314;SDS011;46159;42.550;21.904;2023-04-15T09:35:54;19.05;;;9.18;;
60314;SDS011;46159;42.550;21.904;2023-04-15T09:38:21;11.68;;;5.28;;
60314;SDS011;46159;42.550;21.904;2023-04-15T09:40:47;10.13;;;3.83;;
60314;SDS011;46159;42.550;21.904;2023-04-15T09:43:13;9.85;;;2.40;;
60314;SDS011;46159;42.550;21.904;2023-04-15T09:45:53;6.03;;;1.50;;
60314;SDS011;46159;42.550;21.904;2023-04-15T09:48:23;7.28;;;1.98;;
60314;SDS011;46159;42.550;21.904;2023-04-15T09:50:52;9.45;;;2.92;;
60314;SDS011;46159;42.550;21.904;2023-04-15T09:53:21;7.82;;;2.55;;
60314;SDS011;46159;42.550;21.904;2023-04-15T09:58:26;8.45;;;2.30;;
60314;SDS011;46159;42.550;21.904;2023-04-15T10:03:20;6.82;;;2.50;;
60314;SDS011;46159;42.550;21.904;2023-04-15T10:05:53;8.88;;;3.22;;
60314;SDS011;46159;42.550;21.904;2023-04-15T10:08:21;8.63;;;3.38;;
60314;SDS011;46159;42.550;21.904;2023-04-15T10:10:49;10.48;;;2.97;;
60314;SDS011;46159;42.550;21.904;2023-04-15T10:13:19;6.50;;;2.72;;
60314;SDS011;46159;42.550;21.904;2023-04-15T10:15:59;7.43;;;2.33;;
60314;SDS011;46159;42.550;21.904;2023-04-15T10:18:26;8.98;;;3.22;;
60314;SDS011;46159;42.550;21.904;2023-04-15T10:20:53;9.82;;;3.58;;
60314;SDS011;46159;42.550;21.904;2023-04-15T10:23:22;8.13;;;2.97;;
60314;SDS011;46159;42.550;21.904;2023-04-15T10:25:50;7.00;;;2.75;;
60314;SDS011;46159;42.550;21.904;2023-04-15T10:28:18;7.13;;;1.80;;
60314;SDS011;46159;42.550;21.904;2023-04-15T10:30:44;10.15;;;4.05;;
60314;SDS011;46159;42.550;21.904;2023-04-15T10:33:12;7.88;;;2.72;;
60314;SDS011;46159;42.550;21.904;2023-04-15T10:35:40;12.15;;;3.42;;
60314;SDS011;46159;42.550;21.904;2023-04-15T10:43:47;5.72;;;2.17;;
60314;SDS011;46159;42.550;21.904;2023-04-15T10:46:18;9.32;;;2.88;;
60314;SDS011;46159;42.550;21.904;2023-04-15T10:48:48;7.88;;;2.50;;
60314;SDS011;46159;42.550;21.904;2023-04-15T10:51:15;5.68;;;2.10;;
60314;SDS011;46159;42.550;21.904;2023-04-15T10:53:41;11.18;;;5.07;;
60314;SDS011;46159;42.550;21.904;2023-04-15T10:56:08;14.43;;;3.60;;
60314;SDS011;46159;42.550;21.904;2023-04-15T10:58:41;9.43;;;2.00;;
60314;SDS011;46159;42.550;21.904;2023-04-15T11:01:07;5.93;;;1.40;;
60314;SDS011;46159;42.550;21.904;2023-04-15T11:03:38;5.70;;;2.10;;
60314;SDS011;46159;42.550;21.904;2023-04-15T11:06:05;7.57;;;1.75;;
60314;SDS011;46159;42.550;21.904;2023-04-15T11:11:16;8.00;;;2.78;;
60314;SDS011;46159;42.550;21.904;2023-04-15T11:13:49;10.40;;;4.97;;
60314;SDS011;46159;42.550;21.904;2023-04-15T11:16:16;7.55;;;2.95;;
60314;SDS011;46159;42.550;21.904;2023-04-15T11:18:52;8.02;;;2.25;;
60314;SDS011;46159;42.550;21.904;2023-04-15T11:21:18;7.63;;;2.17;;
60314;SDS011;46159;42.550;21.904;2023-04-15T11:23:49;6.32;;;1.95;;
60314;SDS011;46159;42.550;21.904;2023-04-15T11:26:15;8.32;;;2.47;;
60314;SDS011;46159;42.550;21.904;2023-04-15T11:28:42;9.50;;;3.10;;
60314;SDS011;46159;42.550;21.904;2023-04-15T11:31:15;6.75;;;2.38;;
60314;SDS011;46159;42.550;21.904;2023-04-15T11:33:57;6.55;;;2.50;;
60314;SDS011;46159;42.550;21.904;2023-04-15T11:36:25;6.43;;;2.30;;
60314;SDS011;46159;42.550;21.904;2023-04-15T11:38:51;18.75;;;11.00;;
60314;SDS011;46159;42.550;21.904;2023-04-15T11:41:21;9.32;;;2.17;;
60314;SDS011;46159;42.550;21.904;2023-04-15T11:43:47;11.15;;;7.28;;
60314;SDS011;46159;42.550;21.904;2023-04-15T11:46:14;8.90;;;4.93;;
60314;SDS011;46159;42.550;21.904;2023-04-15T11:48:42;12.90;;;4.65;;
60314;SDS011;46159;42.550;21.904;2023-04-15T11:51:08;16.63;;;7.35;;
60314;SDS011;46159;42.550;21.904;2023-04-15T11:53:35;6.40;;;2.80;;
60314;SDS011;46159;42.550;21.904;2023-04-15T11:56:02;14.10;;;6.05;;
60314;SDS011;46159;42.550;21.904;2023-04-15T11:58:28;14.35;;;3.53;;
60314;SDS011;46159;42.550;21.904;2023-04-15T12:00:59;7.38;;;3.17;;
60314;SDS011;46159;42.550;21.904;2023-04-15T12:03:29;5.85;;;2.10;;
60314;SDS011;46159;42.550;21.904;2023-04-15T12:08:49;6.57;;;2.17;;
60314;SDS011;46159;42.550;21.904;2023-04-15T12:11:15;6.82;;;2.42;;
60314;SDS011;46159;42.550;21.904;2023-04-15T12:13:45;6.95;;;1.80;;
60314;SDS011;46159;42.550;21.904;2023-04-15T12:16:12;14.43;;;4.68;;
60314;SDS011;46159;42.550;21.904;2023-04-15T12:18:39;6.72;;;2.40;;
60314;SDS011;46159;42.550;21.904;2023-04-15T12:21:09;7.82;;;3.13;;
60314;SDS011;46159;42.550;21.904;2023-04-15T12:23:36;10.15;;;4.80;;
60314;SDS011;46159;42.550;21.904;2023-04-15T12:26:06;10.13;;;5.82;;
60314;SDS011;46159;42.550;21.904;2023-04-15T12:28:35;10.60;;;5.63;;
60314;SDS011;46159;42.550;21.904;2023-04-15T12:31:10;14.82;;;8.38;;
60314;SDS011;46159;42.550;21.904;2023-04-15T12:36:03;10.95;;;4.63;;
60314;SDS011;46159;42.550;21.904;2023-04-15T12:38:30;10.48;;;3.40;;
60314;SDS011;46159;42.550;21.904;2023-04-15T12:40:57;8.80;;;4.20;;
60314;SDS011;46159;42.550;21.904;2023-04-15T12:43:23;11.75;;;5.85;;
60314;SDS011;46159;42.550;21.904;2023-04-15T12:45:50;10.07;;;3.47;;
60314;SDS011;46159;42.550;21.904;2023-04-15T12:48:16;10.73;;;4.45;;
60314;SDS011;46159;42.550;21.904;2023-04-15T12:50:44;12.50;;;6.50;;
60314;SDS011;46159;42.550;21.904;2023-04-15T12:53:10;11.52;;;4.93;;
60314;SDS011;46159;42.550;21.904;2023-04-15T12:55:46;9.27;;;4.43;;
60314;SDS011;46159;42.550;21.904;2023-04-15T12:58:12;12.48;;;5.35;;
60314;SDS011;46159;42.550;21.904;2023-04-15T13:00:38;13.40;;;5.15;;
60314;SDS011;46159;42.550;21.904;2023-04-15T13:03:04;11.00;;;3.92;;
60314;SDS011;46159;42.550;21.904;2023-04-15T13:05:31;7.95;;;2.63;;
60314;SDS011;46159;42.550;21.904;2023-04-15T13:07:58;13.88;;;4.03;;
60314;SDS011;46159;42.550;21.904;2023-04-15T13:10:25;12.27;;;3.33;;
60314;SDS011;46159;42.550;21.904;2023-04-15T13:12:52;8.88;;;4.47;;
60314;SDS011;46159;42.550;21.904;2023-04-15T13:15:20;11.13;;;5.93;;
60314;SDS011;46159;42.550;21.904;2023-04-15T13:17:46;8.63;;;3.97;;
60314;SDS011;46159;42.550;21.904;2023-04-15T13:20:12;9.35;;;4.45;;
60314;SDS011;46159;42.550;21.904;2023-04-15T13:22:39;12.95;;;6.90;;
60314;SDS011;46159;42.550;21.904;2023-04-15T13:25:06;8.43;;;4.15;;
60314;SDS011;46159;42.550;21.904;2023-04-15T13:27:32;14.15;;;7.38;;
60314;SDS011;46159;42.550;21.904;2023-04-15T13:29:58;11.75;;;4.68;;
60314;SDS011;46159;42.550;21.904;2023-04-15T13:32:24;10.40;;;4.10;;
60314;SDS011;46159;42.550;21.904;2023-04-15T13:34:51;12.13;;;5.47;;
60314;SDS011;46159;42.550;21.904;2023-04-15T13:37:18;12.95;;;4.72;;
60314;SDS011;46159;42.550;21.904;2023-04-15T13:39:45;10.10;;;3.97;;
60314;SDS011;46159;42.550;21.904;2023-04-15T13:42:11;9.85;;;4.45;;
60314;SDS011;46159;42.550;21.904;2023-04-15T13:44:37;10.25;;;4.57;;
60314;SDS011;46159;42.550;21.904;2023-04-15T13:47:03;23.02;;;11.15;;
60314;SDS011;46159;42.550;21.904;2023-04-15T13:49:29;17.00;;;9.40;;
60314;SDS011;46159;42.550;21.904;2023-04-15T13:51:55;13.13;;;6.13;;
60314;SDS011;46159;42.550;21.904;2023-04-15T13:54:21;7.82;;;2.95;;
60314;SDS011;46159;42.550;21.904;2023-04-15T13:56:47;16.60;;;8.30;;
60314;SDS011;46159;42.550;21.904;2023-04-15T13:59:13;9.57;;;4.50;;
60314;SDS011;46159;42.550;21.904;2023-04-15T14:01:40;15.27;;;5.75;;
60314;SDS011;46159;42.550;21.904;2023-04-15T14:04:06;15.52;;;4.05;;
60314;SDS011;46159;42.550;21.904;2023-04-15T14:06:32;10.90;;;5.10;;
60314;SDS011;46159;42.550;21.904;2023-04-15T14:08:58;14.88;;;5.45;;
60314;SDS011;46159;42.550;21.904;2023-04-15T14:11:24;8.85;;;4.43;;
60314;SDS011;46159;42.550;21.904;2023-04-15T14:13:50;11.70;;;4.05;;
60314;SDS011;46159;42.550;21.904;2023-04-15T14:16:16;16.25;;;8.05;;
60314;SDS011;46159;42.550;21.904;2023-04-15T14:18:43;10.40;;;4.55;;
60314;SDS011;46159;42.550;21.904;2023-04-15T14:21:09;20.90;;;7.75;;
60314;SDS011;46159;42.550;21.904;2023-04-15T14:23:35;11.20;;;5.65;;
60314;SDS011;46159;42.550;21.904;2023-04-15T14:26:03;12.70;;;5.45;;
60314;SDS011;46159;42.550;21.904;2023-04-15T14:28:32;8.35;;;3.88;;
60314;SDS011;46159;42.550;21.904;2023-04-15T14:30:58;12.50;;;7.47;;
60314;SDS011;46159;42.550;21.904;2023-04-15T14:33:25;18.10;;;9.60;;
60314;SDS011;46159;42.550;21.904;2023-04-15T14:35:51;23.45;;;12.68;;
60314;SDS011;46159;42.550;21.904;2023-04-15T14:38:17;15.90;;;7.35;;